createdAt,value
2022-08-01T00:00:13.093Z,20.30
2022-08-01T00:02:40.658Z,20.20
2022-08-01T00:05:09.202Z,20.20
2022-08-01T00:07:36.297Z,20.30
2022-08-01T00:10:08.952Z,20.30
2022-08-01T00:12:35.691Z,20.20
2022-08-01T00:15:02.914Z,20.20
2022-08-01T00:17:29.508Z,20.10
2022-08-01T00:19:56.118Z,20.10
2022-08-01T00:22:22.845Z,19.90
2022-08-01T00:24:49.523Z,19.90
2022-08-01T00:27:16.141Z,19.90
2022-08-01T00:30:09.764Z,19.80
2022-08-01T00:32:32.801Z,19.70
2022-08-01T00:34:59.487Z,19.70
2022-08-01T00:37:26.148Z,19.60
2022-08-01T00:39:52.911Z,19.50
2022-08-01T00:42:19.913Z,19.50
2022-08-01T00:44:46.734Z,19.50
2022-08-01T00:47:13.362Z,19.40
2022-08-01T00:49:40.240Z,19.50
2022-08-01T00:52:07.683Z,19.50
2022-08-01T00:54:34.780Z,19.60
2022-08-01T00:57:01.428Z,19.50
2022-08-01T00:59:28.572Z,19.60
2022-08-01T01:01:56.220Z,19.50
2022-08-01T01:04:23.991Z,19.40
2022-08-01T01:07:09.180Z,19.40
2022-08-01T01:10:10.145Z,19.30
2022-08-01T01:12:50.361Z,19.30
2022-08-01T01:15:48.138Z,19.40
2022-08-01T01:18:23.197Z,19.40
2022-08-01T01:21:17.411Z,19.40
2022-08-01T01:24:08.862Z,19.30
2022-08-01T01:26:55.820Z,19.30
2022-08-01T01:29:29.686Z,19.20
2022-08-01T01:32:30.805Z,19.20
2022-08-01T01:34:59.551Z,19.10
2022-08-01T01:37:28.230Z,19.00
2022-08-01T01:39:56.151Z,18.90
2022-08-01T01:42:26.508Z,18.90
2022-08-01T01:44:54.568Z,18.80
2022-08-01T01:47:22.646Z,18.80
2022-08-01T01:49:50.976Z,18.80
2022-08-01T01:52:19.341Z,18.70
2022-08-01T01:54:49.515Z,18.70
2022-08-01T01:57:18.061Z,18.70
2022-08-01T01:59:46.645Z,18.70
2022-08-01T02:02:15.183Z,18.60
2022-08-01T02:04:44.498Z,18.60
2022-08-01T02:07:15.252Z,18.60
2022-08-01T02:09:43.867Z,18.50
2022-08-01T02:12:15.393Z,18.40
2022-08-01T02:14:45.835Z,18.30
2022-08-01T02:17:16.314Z,18.20
2022-08-01T02:19:43.372Z,18.10
2022-08-01T02:22:21.438Z,18.10
2022-08-01T02:24:53.288Z,18.10
2022-08-01T02:27:26.652Z,18.00
2022-08-01T02:30:14.991Z,17.90
2022-08-01T02:32:48.265Z,17.90
2022-08-01T02:35:21.284Z,17.80
2022-08-01T02:37:49.669Z,17.80
2022-08-01T02:40:18.487Z,17.90
2022-08-01T02:42:50.874Z,18.00
2022-08-01T02:45:25.277Z,18.10
2022-08-01T02:47:54.998Z,18.10
2022-08-01T02:50:24.516Z,18.10
2022-08-01T02:52:53.572Z,18.20
2022-08-01T02:55:21.105Z,18.20
2022-08-01T02:57:52.414Z,18.30
2022-08-01T03:00:20.099Z,18.30
2022-08-01T03:02:51.394Z,18.30
2022-08-01T03:05:19.285Z,18.30
2022-08-01T03:07:48.473Z,18.20
2022-08-01T03:10:17.691Z,18.10
2022-08-01T03:12:48.282Z,18.10
2022-08-01T03:15:16.830Z,18.10
2022-08-01T03:17:46.611Z,18.10
2022-08-01T03:20:15.917Z,18.10
2022-08-01T03:22:44.564Z,18.10
2022-08-01T03:25:14.260Z,18.10
2022-08-01T03:27:44.134Z,18.10
2022-08-01T03:30:11.857Z,18.00
2022-08-01T03:32:39.159Z,17.90
2022-08-01T03:35:06.824Z,18.00
2022-08-01T03:37:49.710Z,18.00
2022-08-01T03:40:36.366Z,18.10
2022-08-01T03:43:11.689Z,18.10
2022-08-01T03:45:42.559Z,18.10
2022-08-01T03:48:17.695Z,18.00
2022-08-01T03:50:49.096Z,18.00
2022-08-01T03:53:19.480Z,18.00
2022-08-01T03:55:46.770Z,18.00
2022-08-01T03:58:14.452Z,18.00
2022-08-01T04:00:41.567Z,17.90
2022-08-01T04:03:10.090Z,17.90
2022-08-01T04:05:37.228Z,17.80
2022-08-01T04:08:04.107Z,17.70
2022-08-01T04:10:30.898Z,17.70
2022-08-01T04:12:57.525Z,17.70
2022-08-01T04:15:24.754Z,17.70
2022-08-01T04:17:51.431Z,17.70
2022-08-01T04:20:18.517Z,17.70
2022-08-01T04:22:45.187Z,17.80
2022-08-01T04:25:24.338Z,17.80
2022-08-01T04:27:53.904Z,17.80
2022-08-01T04:30:28.002Z,17.80
2022-08-01T04:32:58.336Z,17.80
2022-08-01T04:36:01.554Z,17.80
2022-08-01T04:38:18.113Z,17.80
2022-08-01T04:40:49.245Z,17.80
2022-08-01T04:43:16.010Z,17.80
2022-08-01T04:45:44.596Z,17.80
2022-08-01T04:48:14.262Z,17.80
2022-08-01T04:50:42.746Z,17.80
2022-08-01T04:53:17.662Z,17.80
2022-08-01T04:55:46.799Z,17.80
2022-08-01T04:58:17.939Z,17.80
2022-08-01T05:00:46.183Z,17.70
2022-08-01T05:03:13.029Z,17.70
2022-08-01T05:05:40.051Z,17.80
2022-08-01T05:08:07.047Z,17.70
2022-08-01T05:10:34.137Z,17.70
2022-08-01T05:13:00.742Z,17.70
2022-08-01T05:15:27.964Z,17.70
2022-08-01T05:17:55.198Z,17.80
2022-08-01T05:20:22.152Z,17.80
2022-08-01T05:22:48.740Z,17.90
2022-08-01T05:25:19.886Z,18.00
2022-08-01T05:27:49.098Z,18.10
2022-08-01T05:30:17.808Z,18.30
2022-08-01T05:32:44.442Z,18.40
2022-08-01T05:35:11.275Z,18.40
2022-08-01T05:37:37.939Z,18.40
2022-08-01T05:40:05.545Z,18.40
2022-08-01T05:42:32.354Z,18.30
2022-08-01T05:44:58.957Z,18.30
2022-08-01T05:47:25.593Z,18.30
2022-08-01T05:49:52.306Z,18.30
2022-08-01T05:52:18.954Z,18.40
2022-08-01T05:54:45.576Z,18.30
2022-08-01T05:57:12.514Z,18.40
2022-08-01T05:59:39.176Z,18.50
2022-08-01T06:02:06.244Z,18.60
2022-08-01T06:04:33.121Z,18.80
2022-08-01T06:06:59.750Z,18.90
2022-08-01T06:09:26.425Z,19.10
2022-08-01T06:11:53.092Z,19.20
2022-08-01T06:14:19.764Z,19.30
2022-08-01T06:16:46.419Z,19.40
2022-08-01T06:19:13.090Z,19.50
2022-08-01T06:21:39.740Z,19.50
2022-08-01T06:24:06.529Z,19.60
2022-08-01T06:26:33.264Z,19.60
2022-08-01T06:29:03.089Z,19.70
2022-08-01T06:31:33.927Z,19.70
2022-08-01T06:34:02.443Z,19.80
2022-08-01T06:36:29.243Z,19.90
2022-08-01T06:38:59.084Z,20.00
2022-08-01T06:41:26.205Z,20.00
2022-08-01T06:43:58.761Z,20.10
2022-08-01T06:46:30.235Z,20.20
2022-08-01T06:49:05.452Z,20.20
2022-08-01T06:51:32.883Z,20.30
2022-08-01T06:54:09.250Z,20.30
2022-08-01T06:56:38.127Z,20.40
2022-08-01T06:59:08.289Z,20.40
2022-08-01T07:01:38.387Z,20.50
2022-08-01T07:04:09.741Z,20.50
2022-08-01T07:06:39.845Z,20.60
2022-08-01T07:09:12.172Z,20.70
2022-08-01T07:11:42.189Z,20.70
2022-08-01T07:14:14.194Z,20.80
2022-08-01T07:16:41.571Z,20.90
2022-08-01T07:19:09.115Z,21.00
2022-08-01T07:21:40.031Z,21.10
2022-08-01T07:24:25.119Z,21.10
2022-08-01T07:26:56.772Z,21.20
2022-08-01T07:29:27.742Z,21.20
2022-08-01T07:31:56.650Z,21.30
2022-08-01T07:34:24.633Z,21.40
2022-08-01T07:36:53.112Z,21.50
2022-08-01T07:39:20.620Z,21.50
2022-08-01T07:42:06.773Z,21.60
2022-08-01T07:44:38.530Z,21.70
2022-08-01T07:47:06.074Z,21.70
2022-08-01T07:49:44.410Z,21.80
2022-08-01T07:52:14.036Z,21.90
2022-08-01T07:54:52.254Z,21.90
2022-08-01T07:57:29.548Z,22.00
2022-08-01T07:59:59.829Z,22.10
2022-08-01T08:02:32.203Z,22.10
2022-08-01T08:05:00.539Z,22.20
2022-08-01T08:07:27.540Z,22.20
2022-08-01T08:09:55.776Z,22.20
2022-08-01T08:12:28.872Z,22.30
2022-08-01T08:15:02.500Z,22.30
2022-08-01T08:17:35.922Z,22.30
2022-08-01T08:20:08.922Z,22.40
2022-08-01T08:22:42.040Z,22.50
2022-08-01T08:25:12.757Z,22.60
2022-08-01T08:27:39.993Z,22.60
2022-08-01T08:30:13.415Z,22.70
2022-08-01T08:32:43.459Z,22.70
2022-08-01T08:35:12.369Z,22.70
2022-08-01T08:37:47.832Z,22.80
2022-08-01T08:40:16.840Z,22.90
2022-08-01T08:42:44.990Z,23.00
2022-08-01T08:45:12.384Z,23.10
2022-08-01T08:47:40.408Z,23.10
2022-08-01T08:50:07.415Z,23.20
2022-08-01T08:52:37.876Z,23.20
2022-08-01T08:55:05.071Z,23.30
2022-08-01T08:57:34.378Z,23.40
2022-08-01T09:00:01.526Z,23.40
2022-08-01T09:02:28.162Z,23.50
2022-08-01T09:04:55.076Z,23.60
2022-08-01T09:07:22.052Z,23.60
2022-08-01T09:09:50.084Z,23.70
2022-08-01T09:12:19.236Z,23.70
2022-08-01T09:14:47.554Z,23.80
2022-08-01T09:17:14.622Z,23.80
2022-08-01T09:19:44.244Z,24.00
2022-08-01T09:22:13.193Z,24.00
2022-08-01T09:24:41.416Z,24.10
2022-08-01T09:27:22.304Z,24.10
2022-08-01T09:30:00.749Z,24.20
2022-08-01T09:32:38.497Z,24.30
2022-08-01T09:35:30.393Z,24.40
2022-08-01T09:38:18.848Z,24.40
2022-08-01T09:40:51.385Z,24.50
2022-08-01T09:43:19.251Z,24.50
2022-08-01T09:45:49.054Z,24.60
2022-08-01T09:48:19.607Z,24.60
2022-08-01T09:50:51.619Z,24.70
2022-08-01T09:53:29.345Z,24.80
2022-08-01T09:56:13.091Z,24.80
2022-08-01T09:58:58.891Z,24.90
2022-08-01T10:01:27.549Z,25.00
2022-08-01T10:04:10.522Z,25.00
2022-08-01T10:06:37.986Z,25.10
2022-08-01T10:09:05.046Z,25.10
2022-08-01T10:11:36.238Z,25.10
2022-08-01T10:14:04.473Z,25.20
2022-08-01T10:16:38.450Z,25.20
2022-08-01T10:19:15.441Z,25.30
2022-08-01T10:21:58.275Z,25.30
2022-08-01T10:24:38.708Z,25.40
2022-08-01T10:27:14.281Z,25.40
2022-08-01T10:30:14.234Z,25.50
2022-08-01T10:33:52.042Z,25.50
2022-08-01T10:36:03.872Z,25.60
2022-08-01T10:38:36.222Z,25.60
2022-08-01T10:41:06.155Z,25.70
2022-08-01T10:43:45.627Z,25.70
2022-08-01T10:46:14.315Z,25.80
2022-08-01T10:49:17.892Z,25.80
2022-08-01T10:51:54.867Z,25.90
2022-08-01T10:54:25.869Z,25.90
2022-08-01T10:56:53.581Z,26.00
2022-08-01T10:59:50.114Z,26.10
2022-08-01T11:02:35.329Z,26.20
2022-08-01T11:05:20.521Z,26.20
2022-08-01T11:07:55.740Z,26.30
2022-08-01T11:10:30.236Z,26.30
2022-08-01T11:12:57.068Z,26.30
2022-08-01T11:15:29.884Z,26.30
2022-08-01T11:17:58.360Z,26.40
2022-08-01T11:20:33.812Z,26.40
2022-08-01T11:23:02.052Z,26.50
2022-08-01T11:26:03.600Z,26.50
2022-08-01T11:28:32.878Z,26.60
2022-08-01T11:31:14.487Z,26.60
2022-08-01T11:33:45.897Z,26.60
2022-08-01T11:36:55.449Z,26.70
2022-08-01T11:39:13.331Z,26.70
2022-08-01T11:41:45.020Z,26.80
2022-08-01T11:44:21.210Z,26.80
2022-08-01T11:47:00.268Z,26.90
2022-08-01T11:49:41.341Z,26.90
2022-08-01T11:52:24.553Z,27.00
2022-08-01T11:54:53.043Z,27.00
2022-08-01T11:57:23.573Z,27.10
2022-08-01T12:00:02.807Z,27.20
2022-08-01T12:02:35.706Z,27.20
2022-08-01T12:05:15.207Z,27.20
2022-08-01T12:07:43.908Z,27.30
2022-08-01T12:10:16.546Z,27.40
2022-08-01T12:13:00.166Z,27.50
2022-08-01T12:15:31.882Z,27.50
2022-08-01T12:18:00.549Z,27.50
2022-08-01T12:20:36.041Z,27.50
2022-08-01T12:23:07.109Z,27.60
2022-08-01T12:25:34.258Z,27.60
2022-08-01T12:28:02.672Z,27.60
2022-08-01T12:30:31.736Z,27.70
2022-08-01T12:32:58.773Z,27.70
2022-08-01T12:35:28.010Z,27.70
2022-08-01T12:37:57.395Z,27.70
2022-08-01T12:40:29.745Z,27.80
2022-08-01T12:43:04.969Z,27.90
2022-08-01T12:45:56.347Z,27.90
2022-08-01T12:48:25.559Z,28.00
2022-08-01T12:50:58.352Z,28.00
2022-08-01T12:53:25.548Z,28.10
2022-08-01T12:55:59.423Z,28.10
2022-08-01T12:58:33.039Z,28.20
2022-08-01T13:01:08.278Z,28.20
2022-08-01T13:03:35.634Z,28.20
2022-08-01T13:06:02.394Z,28.20
2022-08-01T13:08:34.559Z,28.30
2022-08-01T13:11:06.103Z,28.40
2022-08-01T13:13:41.015Z,28.40
2022-08-01T13:16:12.317Z,28.50
2022-08-01T13:18:56.128Z,28.60
2022-08-01T13:21:29.489Z,28.60
2022-08-01T13:24:16.593Z,28.70
2022-08-01T13:26:50.178Z,28.80
2022-08-01T13:29:18.931Z,28.70
2022-08-01T13:31:45.988Z,28.70
2022-08-01T13:34:12.886Z,28.70
2022-08-01T13:36:44.181Z,28.70
2022-08-01T13:39:32.378Z,28.80
2022-08-01T13:41:59.043Z,28.90
2022-08-01T13:44:25.633Z,28.90
2022-08-01T13:46:52.280Z,28.90
2022-08-01T13:49:19.500Z,28.90
2022-08-01T13:51:47.393Z,28.90
2022-08-01T13:54:14.228Z,28.90
2022-08-01T13:56:40.915Z,28.90
2022-08-01T13:59:07.604Z,29.00
2022-08-01T14:01:35.058Z,29.00
2022-08-01T14:04:02.550Z,29.00
2022-08-01T14:06:29.331Z,29.10
2022-08-01T14:08:55.965Z,29.10
2022-08-01T14:11:22.602Z,29.20
2022-08-01T14:13:49.205Z,29.10
2022-08-01T14:16:18.322Z,29.10
2022-08-01T14:18:45.049Z,29.10
2022-08-01T14:21:12.043Z,29.20
2022-08-01T14:23:39.159Z,29.20
2022-08-01T14:26:11.685Z,29.20
2022-08-01T14:28:40.274Z,29.30
2022-08-01T14:31:07.321Z,29.30
2022-08-01T14:33:35.727Z,29.40
2022-08-01T14:36:20.599Z,29.40
2022-08-01T14:38:51.853Z,29.50
2022-08-01T14:41:18.453Z,29.40
2022-08-01T14:43:45.600Z,29.40
2022-08-01T14:46:13.373Z,29.40
2022-08-01T14:48:40.152Z,29.40
2022-08-01T14:51:08.043Z,29.50
2022-08-01T14:53:37.402Z,29.50
2022-08-01T14:56:07.719Z,29.60
2022-08-01T14:58:34.761Z,29.60
2022-08-01T15:01:01.730Z,29.60
2022-08-01T15:03:28.539Z,29.70
2022-08-01T15:05:55.221Z,29.70
2022-08-01T15:08:21.883Z,29.80
2022-08-01T15:10:48.565Z,29.80
2022-08-01T15:13:15.601Z,29.80
2022-08-01T15:15:42.361Z,29.80
2022-08-01T15:18:09.073Z,29.80
2022-08-01T15:20:35.674Z,29.80
2022-08-01T15:23:02.353Z,29.80
2022-08-01T15:25:41.128Z,29.80
2022-08-01T15:28:10.514Z,29.90
2022-08-01T15:30:38.727Z,29.90
2022-08-01T15:33:05.730Z,29.80
2022-08-01T15:35:32.562Z,29.80
2022-08-01T15:37:59.431Z,29.90
2022-08-01T15:40:27.510Z,29.80
2022-08-01T15:42:54.192Z,29.80
2022-08-01T15:45:47.351Z,29.80
2022-08-01T15:48:09.059Z,29.70
2022-08-01T15:50:38.524Z,29.70
2022-08-01T15:53:05.653Z,29.70
2022-08-01T15:55:32.407Z,29.70
2022-08-01T15:57:59.025Z,29.70
2022-08-01T16:00:25.753Z,29.60
2022-08-01T16:03:02.885Z,29.50
2022-08-01T16:05:29.681Z,29.40
2022-08-01T16:07:59.921Z,29.40
2022-08-01T16:10:29.650Z,29.40
2022-08-01T16:12:56.371Z,29.30
2022-08-01T16:15:23.072Z,29.30
2022-08-01T16:18:03.061Z,29.30
2022-08-01T16:20:29.884Z,29.30
2022-08-01T16:22:56.513Z,29.30
2022-08-01T16:25:23.387Z,29.30
2022-08-01T16:27:50.032Z,29.30
2022-08-01T16:30:17.308Z,29.20
2022-08-01T16:32:51.427Z,29.10
2022-08-01T16:35:20.036Z,29.10
2022-08-01T16:37:47.060Z,29.00
2022-08-01T16:40:16.188Z,28.90
2022-08-01T16:42:42.869Z,28.90
2022-08-01T16:45:13.894Z,28.80
2022-08-01T16:47:41.302Z,28.80
2022-08-01T16:50:09.404Z,28.80
2022-08-01T16:52:41.982Z,28.70
2022-08-01T16:55:10.600Z,28.70
2022-08-01T16:57:38.425Z,28.60
2022-08-01T17:00:10.292Z,28.60
2022-08-01T17:02:38.632Z,28.40
2022-08-01T17:05:09.197Z,28.50
2022-08-01T17:07:39.865Z,28.40
2022-08-01T17:10:07.297Z,28.40
2022-08-01T17:12:35.296Z,28.30
2022-08-01T17:15:02.141Z,28.30
2022-08-01T17:17:28.785Z,28.20
2022-08-01T17:19:55.410Z,28.20
2022-08-01T17:22:22.086Z,28.20
2022-08-01T17:24:50.947Z,28.10
2022-08-01T17:27:18.353Z,28.10
2022-08-01T17:29:45.750Z,28.00
2022-08-01T17:32:14.067Z,28.00
2022-08-01T17:34:41.900Z,28.00
2022-08-01T17:37:09.407Z,27.90
2022-08-01T17:39:39.514Z,27.90
2022-08-01T17:42:07.500Z,27.90
2022-08-01T17:44:34.249Z,27.80
2022-08-01T17:47:00.891Z,27.80
2022-08-01T17:49:52.371Z,27.70
2022-08-01T17:52:14.334Z,27.70
2022-08-01T17:54:41.837Z,27.70
2022-08-01T17:57:10.169Z,27.60
2022-08-01T17:59:37.029Z,27.60
2022-08-01T18:02:04.505Z,27.60
2022-08-01T18:04:33.913Z,27.50
2022-08-01T18:07:01.753Z,27.50
2022-08-01T18:09:32.665Z,27.50
2022-08-01T18:12:03.015Z,27.50
2022-08-01T18:14:40.331Z,27.50
2022-08-01T18:17:11.292Z,27.40
2022-08-01T18:19:39.509Z,27.40
2022-08-01T18:22:28.842Z,27.40
2022-08-01T18:24:53.059Z,27.30
2022-08-01T18:27:19.693Z,27.30
2022-08-01T18:29:49.089Z,27.20
2022-08-01T18:32:16.043Z,27.20
2022-08-01T18:34:42.696Z,27.20
2022-08-01T18:37:11.375Z,27.10
2022-08-01T18:39:39.763Z,27.00
2022-08-01T18:42:09.809Z,27.00
2022-08-01T18:44:36.842Z,26.90
2022-08-01T18:47:04.576Z,26.80
2022-08-01T18:49:32.846Z,26.80
2022-08-01T18:51:59.584Z,26.80
2022-08-01T18:54:27.173Z,26.80
2022-08-01T18:56:53.887Z,26.70
2022-08-01T18:59:21.496Z,26.70
2022-08-01T19:01:48.226Z,26.60
2022-08-01T19:04:15.031Z,26.60
2022-08-01T19:06:42.041Z,26.50
2022-08-01T19:09:09.001Z,26.40
2022-08-01T19:11:36.152Z,26.40
2022-08-01T19:14:03.150Z,26.40
2022-08-01T19:16:30.574Z,26.40
2022-08-01T19:18:57.248Z,26.30
2022-08-01T19:21:25.180Z,26.30
2022-08-01T19:24:10.658Z,26.30
2022-08-01T19:26:40.295Z,26.30
2022-08-01T19:29:11.899Z,26.30
2022-08-01T19:31:43.325Z,26.30
2022-08-01T19:34:14.790Z,26.20
2022-08-01T19:36:44.729Z,26.10
2022-08-01T19:39:11.613Z,26.00
2022-08-01T19:41:40.666Z,25.90
2022-08-01T19:44:07.800Z,25.90
2022-08-01T19:46:39.205Z,25.90
2022-08-01T19:49:06.237Z,25.90
2022-08-01T19:51:34.513Z,25.90
2022-08-01T19:54:05.538Z,25.90
2022-08-01T19:56:40.824Z,25.90
2022-08-01T19:59:08.290Z,25.90
2022-08-01T20:01:36.679Z,25.90
2022-08-01T20:04:04.713Z,25.90
2022-08-01T20:06:32.108Z,25.80
2022-08-01T20:08:59.798Z,25.80
2022-08-01T20:11:27.042Z,25.70
2022-08-01T20:13:56.400Z,25.60
2022-08-01T20:16:25.018Z,25.70
2022-08-01T20:18:51.800Z,25.60
2022-08-01T20:21:19.723Z,25.50
2022-08-01T20:23:49.958Z,25.40
2022-08-01T20:26:17.822Z,25.50
2022-08-01T20:28:49.025Z,25.40
2022-08-01T20:31:16.736Z,25.40
2022-08-01T20:33:46.346Z,25.40
2022-08-01T20:36:25.085Z,25.40
2022-08-01T20:38:55.128Z,25.30
2022-08-01T20:41:24.927Z,25.30
2022-08-01T20:43:54.547Z,25.20
2022-08-01T20:46:28.803Z,25.20
2022-08-01T20:48:57.530Z,25.10
2022-08-01T20:51:28.941Z,25.10
2022-08-01T20:53:56.367Z,25.00
2022-08-01T20:56:35.330Z,25.00
2022-08-01T20:59:11.018Z,25.00
2022-08-01T21:02:12.377Z,25.00
2022-08-01T21:05:06.605Z,25.00
2022-08-01T21:07:43.594Z,24.90
2022-08-01T21:10:13.490Z,24.80
2022-08-01T21:13:21.327Z,24.80
2022-08-01T21:16:23.250Z,24.80
2022-08-01T21:19:19.581Z,24.80
2022-08-01T21:21:50.047Z,24.80
2022-08-01T21:24:18.588Z,24.80
2022-08-01T21:26:46.355Z,24.70
2022-08-01T21:29:13.993Z,24.70
2022-08-01T21:31:41.628Z,24.60
2022-08-01T21:34:09.266Z,24.40
2022-08-01T21:36:36.714Z,24.40
2022-08-01T21:39:05.829Z,24.30
2022-08-01T21:42:05.003Z,24.20
2022-08-01T21:44:19.820Z,24.10
2022-08-01T21:46:48.430Z,24.00
2022-08-01T21:49:15.365Z,23.90
2022-08-01T21:51:51.655Z,23.90
2022-08-01T21:54:43.769Z,23.90
2022-08-01T21:57:23.614Z,24.00
2022-08-01T22:00:20.922Z,23.90
2022-08-01T22:03:17.980Z,23.90
2022-08-01T22:05:50.842Z,23.90
2022-08-01T22:08:36.376Z,23.90
2022-08-01T22:11:07.881Z,23.90
2022-08-01T22:13:35.850Z,23.80
2022-08-01T22:16:04.863Z,23.70
2022-08-01T22:18:32.930Z,23.70
2022-08-01T22:21:00.684Z,23.60
2022-08-01T22:23:28.239Z,23.50
2022-08-01T22:25:56.024Z,23.50
2022-08-01T22:28:23.709Z,23.40
2022-08-01T22:30:51.574Z,23.40
2022-08-01T22:33:20.352Z,23.30
2022-08-01T22:35:50.469Z,23.30
2022-08-01T22:38:19.265Z,23.20
2022-08-01T22:40:50.142Z,23.10
2022-08-01T22:43:26.240Z,23.10
2022-08-01T22:46:20.998Z,23.00
2022-08-01T22:49:21.444Z,22.90
2022-08-01T22:51:55.254Z,22.70
2022-08-01T22:54:29.949Z,22.60
2022-08-01T22:57:00.792Z,22.60
2022-08-01T22:59:56.545Z,22.60
2022-08-01T23:02:23.196Z,22.60
2022-08-01T23:04:56.084Z,22.60
2022-08-01T23:07:33.783Z,22.60
2022-08-01T23:10:05.418Z,22.70
2022-08-01T23:12:32.863Z,22.70
2022-08-01T23:15:01.063Z,22.80
2022-08-01T23:17:31.619Z,22.70
2022-08-01T23:20:01.638Z,22.60
2022-08-01T23:22:33.853Z,22.60
2022-08-01T23:25:06.228Z,22.60
2022-08-01T23:27:51.339Z,22.60
2022-08-01T23:30:29.626Z,22.60
2022-08-01T23:32:57.130Z,22.60
2022-08-01T23:35:24.525Z,22.60
2022-08-01T23:37:51.525Z,22.60
2022-08-01T23:40:18.831Z,22.70
2022-08-01T23:42:45.545Z,22.60
2022-08-01T23:45:12.269Z,22.60
2022-08-01T23:47:39.033Z,22.60
2022-08-01T23:50:07.593Z,22.60
2022-08-01T23:52:34.522Z,22.50
2022-08-01T23:55:15.023Z,22.50
2022-08-01T23:57:42.337Z,22.40
